WMT6060 LFMN-LUKK
Flight info
| Callsign | WMT6060 |
|---|---|
| Flight time | 2h 23m |
| Altitude | 38000 |
| Route | BASIP DCT ANAKI DCT KALMO DCT LUPOS DCT LABIN/N0440F370 DCT VEBAL DCT PIDON DCT MAVIR DCT DEGET DCT BUSES |
| Aircraft | A321/M-SDE1E2E3FGIJ1J4RWXY/LB1 |
Departure
| Time | 2026-05-03 21:35 |
|---|---|
| Airport | Nice-Côte d'Azur Airport (LFMN) |
Arrival
| Time | 2026-05-03 23:59 |
|---|---|
| Airport | Chişinău International Airport (LUKK) |
| Time | Latitude | Longitude | Altitude | Speed | Heading |
|---|---|---|---|---|---|
| 2026-05-03 21:12 | 43.66431 | 7.21407 | 21 ft | 0 kts | 351° |
| 2026-05-03 21:24 | 43.66412 | 7.21412 | 23 ft | 4 kts | 346° |
| 2026-05-03 21:24 | 43.66387 | 7.21423 | 24 ft | 4 kts | 336° |
| 2026-05-03 21:25 | 43.66364 | 7.21441 | 24 ft | 4 kts | 310° |
| 2026-05-03 21:25 | 43.66356 | 7.21465 | 21 ft | 1 kts | 262° |
| 2026-05-03 21:25 | 43.66356 | 7.21466 | 21 ft | 0 kts | 262° |
| 2026-05-03 21:28 | 43.66356 | 7.21465 | 21 ft | 1 kts | 262° |
| 2026-05-03 21:29 | 43.66344 | 7.21431 | 21 ft | 6 kts | 215° |
| 2026-05-03 21:29 | 43.66310 | 7.21381 | 21 ft | 9 kts | 229° |
| 2026-05-03 21:29 | 43.66254 | 7.21298 | 21 ft | 14 kts | 223° |
| 2026-05-03 21:29 | 43.66182 | 7.21203 | 21 ft | 15 kts | 225° |
| 2026-05-03 21:30 | 43.66103 | 7.21094 | 21 ft | 17 kts | 225° |
| 2026-05-03 21:30 | 43.66016 | 7.20975 | 21 ft | 18 kts | 225° |
| 2026-05-03 21:30 | 43.65921 | 7.20846 | 21 ft | 20 kts | 224° |
| 2026-05-03 21:30 | 43.65816 | 7.20711 | 21 ft | 21 kts | 224° |
| 2026-05-03 21:31 | 43.65708 | 7.20561 | 21 ft | 23 kts | 225° |
| 2026-05-03 21:31 | 43.65593 | 7.20404 | 21 ft | 24 kts | 224° |
| 2026-05-03 21:31 | 43.65474 | 7.20238 | 21 ft | 19 kts | 224° |
| 2026-05-03 21:31 | 43.65383 | 7.20179 | 21 ft | 16 kts | 171° |
| 2026-05-03 21:32 | 43.65293 | 7.20269 | 21 ft | 17 kts | 135° |
| 2026-05-03 21:32 | 43.65260 | 7.20314 | 21 ft | 0 kts | 134° |
| 2026-05-03 21:32 | 43.65251 | 7.20327 | 21 ft | 7 kts | 134° |
| 2026-05-03 21:33 | 43.65174 | 7.20437 | 22 ft | 21 kts | 134° |
| 2026-05-03 21:33 | 43.65075 | 7.20571 | 21 ft | 8 kts | 136° |
| 2026-05-03 21:33 | 43.65067 | 7.20582 | 21 ft | 0 kts | 136° |
| 2026-05-03 21:34 | 43.65064 | 7.20585 | 22 ft | 3 kts | 136° |
| 2026-05-03 21:34 | 43.65024 | 7.20637 | 23 ft | 11 kts | 136° |
| 2026-05-03 21:34 | 43.65022 | 7.20723 | 26 ft | 11 kts | 50° |
| 2026-05-03 21:34 | 43.65152 | 7.20901 | 21 ft | 60 kts | 46° |
| 2026-05-03 21:35 | 43.65628 | 7.21561 | 26 ft | 131 kts | 45° |
| 2026-05-03 21:35 | 43.66375 | 7.22592 | 338 ft | 157 kts | 47° |
| 2026-05-03 21:35 | 43.66854 | 7.23946 | 1036 ft | 162 kts | 83° |
| 2026-05-03 21:35 | 43.66608 | 7.25517 | 1508 ft | 180 kts | 122° |
| 2026-05-03 21:36 | 43.65728 | 7.26904 | 1807 ft | 204 kts | 132° |
| 2026-05-03 21:36 | 43.64722 | 7.28394 | 2325 ft | 219 kts | 132° |
| 2026-05-03 21:36 | 43.63694 | 7.29972 | 3115 ft | 222 kts | 125° |
| 2026-05-03 21:36 | 43.63197 | 7.31962 | 3901 ft | 226 kts | 88° |
| 2026-05-03 21:37 | 43.63583 | 7.34065 | 4719 ft | 228 kts | 71° |
| 2026-05-03 21:37 | 43.64128 | 7.36139 | 5546 ft | 231 kts | 71° |
| 2026-05-03 21:37 | 43.64683 | 7.38242 | 6350 ft | 235 kts | 72° |
| 2026-05-03 21:37 | 43.65246 | 7.40384 | 7108 ft | 239 kts | 72° |
| 2026-05-03 21:38 | 43.65815 | 7.42562 | 7852 ft | 243 kts | 73° |
| 2026-05-03 21:38 | 43.66392 | 7.44780 | 8604 ft | 247 kts | 73° |
| 2026-05-03 21:38 | 43.66979 | 7.47035 | 9361 ft | 252 kts | 74° |
| 2026-05-03 21:38 | 43.67575 | 7.49330 | 10102 ft | 256 kts | 74° |
| 2026-05-03 21:39 | 43.68190 | 7.51670 | 10542 ft | 273 kts | 74° |
| 2026-05-03 21:39 | 43.68866 | 7.54241 | 10817 ft | 297 kts | 73° |
| 2026-05-03 21:39 | 43.69600 | 7.57025 | 11052 ft | 320 kts | 73° |
| 2026-05-03 21:39 | 43.70395 | 7.60018 | 11290 ft | 342 kts | 72° |
| 2026-05-03 21:40 | 43.71228 | 7.63142 | 11868 ft | 350 kts | 72° |
| 2026-05-03 21:40 | 43.72075 | 7.66323 | 12571 ft | 355 kts | 72° |
| 2026-05-03 21:40 | 43.72944 | 7.69537 | 13297 ft | 359 kts | 69° |
| 2026-05-03 21:40 | 43.74198 | 7.72558 | 13983 ft | 367 kts | 54° |
| 2026-05-03 21:41 | 43.75881 | 7.75239 | 14601 ft | 371 kts | 49° |
| 2026-05-03 21:41 | 43.77611 | 7.77922 | 15231 ft | 375 kts | 49° |
| 2026-05-03 21:41 | 43.79356 | 7.80635 | 15863 ft | 380 kts | 49° |
| 2026-05-03 21:41 | 43.81116 | 7.83384 | 16506 ft | 383 kts | 49° |
| 2026-05-03 21:42 | 43.82889 | 7.86166 | 17145 ft | 387 kts | 49° |
| 2026-05-03 21:42 | 43.84678 | 7.88986 | 17782 ft | 391 kts | 49° |
| 2026-05-03 21:42 | 43.86482 | 7.91833 | 18415 ft | 396 kts | 49° |
| 2026-05-03 21:42 | 43.88306 | 7.94718 | 18955 ft | 399 kts | 50° |
| 2026-05-03 21:43 | 43.89923 | 7.97859 | 19498 ft | 402 kts | 60° |
| 2026-05-03 21:43 | 43.91303 | 8.01246 | 20081 ft | 405 kts | 62° |
| 2026-05-03 21:43 | 43.92690 | 8.04657 | 20661 ft | 407 kts | 61° |
| 2026-05-03 21:43 | 43.94089 | 8.08090 | 21240 ft | 411 kts | 61° |
| 2026-05-03 21:44 | 43.95502 | 8.11556 | 21789 ft | 414 kts | 61° |
| 2026-05-03 21:44 | 43.96928 | 8.15050 | 22343 ft | 418 kts | 61° |
| 2026-05-03 21:44 | 43.98366 | 8.18569 | 22905 ft | 421 kts | 61° |
| 2026-05-03 21:44 | 43.99815 | 8.22119 | 23444 ft | 424 kts | 61° |
| 2026-05-03 21:45 | 44.01274 | 8.25700 | 23929 ft | 427 kts | 61° |
| 2026-05-03 21:45 | 44.02739 | 8.29304 | 24352 ft | 430 kts | 61° |
| 2026-05-03 21:45 | 44.04211 | 8.32940 | 24783 ft | 433 kts | 61° |
| 2026-05-03 21:45 | 44.05692 | 8.36607 | 25169 ft | 437 kts | 61° |
| 2026-05-03 21:46 | 44.07185 | 8.40307 | 25561 ft | 440 kts | 61° |
| 2026-05-03 21:46 | 44.08687 | 8.44032 | 25972 ft | 443 kts | 61° |
| 2026-05-03 21:46 | 44.10199 | 8.47787 | 26361 ft | 446 kts | 61° |
| 2026-05-03 21:46 | 44.11720 | 8.51566 | 26754 ft | 450 kts | 61° |
| 2026-05-03 21:47 | 44.13232 | 8.55330 | 27124 ft | 453 kts | 61° |
| 2026-05-03 21:47 | 44.14793 | 8.59226 | 27513 ft | 456 kts | 61° |
| 2026-05-03 21:47 | 44.16320 | 8.63046 | 27895 ft | 459 kts | 61° |
| 2026-05-03 21:47 | 44.17876 | 8.66941 | 28276 ft | 462 kts | 61° |
| 2026-05-03 21:48 | 44.19361 | 8.70917 | 28650 ft | 464 kts | 66° |
| 2026-05-03 21:48 | 44.20446 | 8.75158 | 29018 ft | 466 kts | 75° |
| 2026-05-03 21:48 | 44.21124 | 8.79590 | 29382 ft | 469 kts | 79° |
| 2026-05-03 21:48 | 44.21747 | 8.84062 | 29744 ft | 471 kts | 79° |
| 2026-05-03 21:49 | 44.22378 | 8.88557 | 30093 ft | 474 kts | 79° |
| 2026-05-03 21:49 | 44.23017 | 8.93079 | 30401 ft | 477 kts | 79° |
| 2026-05-03 21:49 | 44.23658 | 8.97626 | 30706 ft | 479 kts | 79° |
| 2026-05-03 21:49 | 44.24301 | 9.02195 | 31004 ft | 482 kts | 79° |
| 2026-05-03 21:50 | 44.24948 | 9.06788 | 31307 ft | 484 kts | 79° |
| 2026-05-03 21:50 | 44.25597 | 9.11412 | 31621 ft | 486 kts | 79° |
| 2026-05-03 21:50 | 44.26247 | 9.16037 | 32020 ft | 486 kts | 79° |
| 2026-05-03 21:50 | 44.26892 | 9.20660 | 32449 ft | 485 kts | 79° |
| 2026-05-03 21:51 | 44.27531 | 9.25283 | 32868 ft | 485 kts | 79° |
| 2026-05-03 21:51 | 44.28167 | 9.29900 | 33278 ft | 485 kts | 79° |
| 2026-05-03 21:51 | 44.28800 | 9.34515 | 33688 ft | 484 kts | 79° |
| 2026-05-03 21:51 | 44.29430 | 9.39130 | 34099 ft | 484 kts | 80° |
| 2026-05-03 21:52 | 44.30058 | 9.43743 | 34472 ft | 483 kts | 80° |
| 2026-05-03 21:52 | 44.30682 | 9.48351 | 34832 ft | 483 kts | 79° |
| 2026-05-03 21:52 | 44.31303 | 9.52951 | 35219 ft | 481 kts | 79° |
| 2026-05-03 21:52 | 44.31918 | 9.57543 | 35561 ft | 481 kts | 79° |
| 2026-05-03 21:53 | 44.32570 | 9.62115 | 35928 ft | 480 kts | 77° |
| 2026-05-03 21:53 | 44.33343 | 9.66642 | 36294 ft | 479 kts | 75° |
| 2026-05-03 21:53 | 44.34208 | 9.71132 | 36610 ft | 478 kts | 74° |
| 2026-05-03 21:53 | 44.35121 | 9.75596 | 36948 ft | 478 kts | 73° |
| 2026-05-03 21:54 | 44.36038 | 9.80054 | 37263 ft | 477 kts | 73° |
| 2026-05-03 21:54 | 44.36933 | 9.84518 | 37559 ft | 477 kts | 74° |
| 2026-05-03 21:54 | 44.37799 | 9.88989 | 37860 ft | 476 kts | 74° |
| 2026-05-03 21:54 | 44.38639 | 9.93467 | 38110 ft | 477 kts | 75° |
| 2026-05-03 21:55 | 44.40285 | 10.02434 | 38155 ft | 475 kts | 75° |
| 2026-05-03 21:55 | 44.41921 | 10.11381 | 38149 ft | 475 kts | 75° |
| 2026-05-03 21:56 | 44.43563 | 10.20266 | 38166 ft | 475 kts | 75° |
| 2026-05-03 21:56 | 44.45210 | 10.29196 | 38190 ft | 474 kts | 75° |
| 2026-05-03 21:57 | 44.46844 | 10.38124 | 38195 ft | 473 kts | 75° |
| 2026-05-03 21:57 | 44.48475 | 10.47056 | 38223 ft | 474 kts | 75° |
| 2026-05-03 21:58 | 44.50091 | 10.56003 | 38224 ft | 474 kts | 75° |
| 2026-05-03 21:58 | 44.51764 | 10.64928 | 38233 ft | 473 kts | 72° |
| 2026-05-03 21:59 | 44.53595 | 10.73755 | 38241 ft | 471 kts | 72° |
| 2026-05-03 21:59 | 44.55441 | 10.82571 | 38242 ft | 471 kts | 72° |
| 2026-05-03 22:00 | 44.57234 | 10.91399 | 38225 ft | 471 kts | 72° |
| 2026-05-03 22:00 | 44.58996 | 11.00248 | 38226 ft | 471 kts | 73° |
| 2026-05-03 22:01 | 44.60758 | 11.09100 | 38215 ft | 471 kts | 73° |
| 2026-05-03 22:01 | 44.62522 | 11.17956 | 38204 ft | 471 kts | 73° |
| 2026-05-03 22:02 | 44.64271 | 11.26814 | 38115 ft | 471 kts | 73° |
| 2026-05-03 22:02 | 44.66010 | 11.35669 | 38119 ft | 470 kts | 73° |
| 2026-05-03 22:03 | 44.67739 | 11.44519 | 38131 ft | 469 kts | 72° |
| 2026-05-03 22:03 | 44.69472 | 11.53348 | 38149 ft | 468 kts | 72° |
| 2026-05-03 22:04 | 44.71186 | 11.62176 | 38151 ft | 468 kts | 72° |
| 2026-05-03 22:04 | 44.72891 | 11.70998 | 38156 ft | 467 kts | 72° |
| 2026-05-03 22:05 | 44.74300 | 11.78326 | 38147 ft | 467 kts | 73° |
| 2026-05-03 22:05 | 44.75992 | 11.87142 | 38146 ft | 466 kts | 72° |
| 2026-05-03 22:06 | 44.77678 | 11.95958 | 38136 ft | 466 kts | 72° |
| 2026-05-03 22:06 | 44.79349 | 12.04779 | 38132 ft | 466 kts | 72° |
| 2026-05-03 22:07 | 44.81014 | 12.13601 | 38119 ft | 466 kts | 72° |
| 2026-05-03 22:07 | 44.82681 | 12.22417 | 38117 ft | 466 kts | 72° |
| 2026-05-03 22:08 | 44.84334 | 12.31241 | 38111 ft | 466 kts | 72° |
| 2026-05-03 22:08 | 44.85976 | 12.40064 | 38110 ft | 466 kts | 73° |
| 2026-05-03 22:09 | 44.87614 | 12.48890 | 38114 ft | 465 kts | 73° |
| 2026-05-03 22:10 | 44.90062 | 12.62137 | 38121 ft | 465 kts | 73° |
| 2026-05-03 22:10 | 44.91681 | 12.70975 | 38127 ft | 465 kts | 72° |
| 2026-05-03 22:11 | 44.93288 | 12.79800 | 38131 ft | 464 kts | 72° |
| 2026-05-03 22:11 | 44.94889 | 12.88598 | 38131 ft | 463 kts | 72° |
| 2026-05-03 22:12 | 44.96484 | 12.97391 | 38135 ft | 462 kts | 73° |
| 2026-05-03 22:12 | 44.98060 | 13.06183 | 38132 ft | 462 kts | 73° |
| 2026-05-03 22:13 | 45.00052 | 13.14742 | 38088 ft | 456 kts | 66° |
| 2026-05-03 22:13 | 45.01149 | 13.18927 | 37626 ft | 454 kts | 66° |
| 2026-05-03 22:13 | 45.02241 | 13.23103 | 37184 ft | 451 kts | 66° |
| 2026-05-03 22:13 | 45.03322 | 13.27246 | 37080 ft | 449 kts | 66° |
| 2026-05-03 22:14 | 45.04390 | 13.31355 | 37118 ft | 453 kts | 66° |
| 2026-05-03 22:14 | 45.06561 | 13.39746 | 37107 ft | 455 kts | 66° |
| 2026-05-03 22:15 | 45.08726 | 13.48156 | 37119 ft | 455 kts | 66° |
| 2026-05-03 22:15 | 45.10891 | 13.56576 | 37117 ft | 455 kts | 66° |
| 2026-05-03 22:16 | 45.13050 | 13.64990 | 37121 ft | 454 kts | 66° |
| 2026-05-03 22:16 | 45.15199 | 13.73409 | 37114 ft | 455 kts | 66° |
| 2026-05-03 22:17 | 45.17343 | 13.81848 | 37116 ft | 455 kts | 66° |
| 2026-05-03 22:17 | 45.19490 | 13.90291 | 37120 ft | 455 kts | 66° |
| 2026-05-03 22:18 | 45.21624 | 13.98752 | 37116 ft | 456 kts | 66° |
| 2026-05-03 22:18 | 45.23747 | 14.07213 | 37119 ft | 455 kts | 66° |
| 2026-05-03 22:19 | 45.25875 | 14.15670 | 37112 ft | 455 kts | 66° |
| 2026-05-03 22:19 | 45.27987 | 14.24135 | 37110 ft | 455 kts | 67° |
| 2026-05-03 22:20 | 45.30095 | 14.32614 | 37095 ft | 456 kts | 67° |
| 2026-05-03 22:20 | 45.32202 | 14.41112 | 37088 ft | 456 kts | 67° |
| 2026-05-03 22:21 | 45.34303 | 14.49605 | 37088 ft | 454 kts | 68° |
| 2026-05-03 22:21 | 45.36391 | 14.58072 | 37091 ft | 454 kts | 68° |
| 2026-05-03 22:22 | 45.38464 | 14.66542 | 37098 ft | 454 kts | 68° |
| 2026-05-03 22:22 | 45.40531 | 14.75022 | 37101 ft | 454 kts | 68° |
| 2026-05-03 22:23 | 45.42587 | 14.83497 | 37106 ft | 452 kts | 68° |
| 2026-05-03 22:23 | 45.44627 | 14.91903 | 37126 ft | 452 kts | 68° |
| 2026-05-03 22:24 | 45.46685 | 15.00390 | 37117 ft | 450 kts | 68° |
| 2026-05-03 22:24 | 45.48701 | 15.08754 | 37115 ft | 449 kts | 68° |
| 2026-05-03 22:25 | 45.50718 | 15.17185 | 37107 ft | 449 kts | 68° |
| 2026-05-03 22:25 | 45.52727 | 15.25622 | 37109 ft | 449 kts | 68° |
| 2026-05-03 22:26 | 45.54734 | 15.34062 | 37102 ft | 449 kts | 68° |
| 2026-05-03 22:26 | 45.56736 | 15.42497 | 37103 ft | 449 kts | 68° |
| 2026-05-03 22:27 | 45.58727 | 15.50929 | 37106 ft | 448 kts | 68° |
| 2026-05-03 22:27 | 45.60714 | 15.59375 | 37106 ft | 449 kts | 68° |
| 2026-05-03 22:28 | 45.62696 | 15.67826 | 37103 ft | 449 kts | 68° |
| 2026-05-03 22:28 | 45.64673 | 15.76282 | 37104 ft | 449 kts | 68° |
| 2026-05-03 22:29 | 45.66636 | 15.84751 | 37111 ft | 448 kts | 68° |
| 2026-05-03 22:29 | 45.68593 | 15.93206 | 37107 ft | 448 kts | 69° |
| 2026-05-03 22:30 | 45.70546 | 16.01659 | 37112 ft | 447 kts | 69° |
| 2026-05-03 22:30 | 45.72492 | 16.10115 | 37110 ft | 447 kts | 69° |
| 2026-05-03 22:31 | 45.74412 | 16.18522 | 37113 ft | 447 kts | 69° |
| 2026-05-03 22:31 | 45.76342 | 16.26991 | 37110 ft | 448 kts | 69° |
| 2026-05-03 22:32 | 45.78266 | 16.35464 | 37107 ft | 446 kts | 69° |
| 2026-05-03 22:32 | 45.80174 | 16.43907 | 37110 ft | 445 kts | 69° |
| 2026-05-03 22:33 | 45.82071 | 16.52352 | 37114 ft | 445 kts | 69° |
| 2026-05-03 22:33 | 45.83967 | 16.60797 | 37114 ft | 445 kts | 69° |
| 2026-05-03 22:34 | 45.85855 | 16.69248 | 37110 ft | 445 kts | 69° |
| 2026-05-03 22:34 | 45.87739 | 16.77702 | 37110 ft | 444 kts | 69° |
| 2026-05-03 22:35 | 45.89604 | 16.86101 | 37114 ft | 440 kts | 69° |
| 2026-05-03 22:35 | 45.91456 | 16.94477 | 37118 ft | 440 kts | 69° |
| 2026-05-03 22:36 | 45.93299 | 17.02845 | 37116 ft | 439 kts | 69° |
| 2026-05-03 22:36 | 45.95137 | 17.11218 | 37117 ft | 439 kts | 69° |
| 2026-05-03 22:37 | 45.96965 | 17.19604 | 37125 ft | 440 kts | 69° |
| 2026-05-03 22:37 | 45.98782 | 17.28006 | 37149 ft | 440 kts | 69° |
| 2026-05-03 22:38 | 46.00448 | 17.36485 | 37150 ft | 441 kts | 72° |
| 2026-05-03 22:38 | 46.01870 | 17.45059 | 37148 ft | 440 kts | 73° |
| 2026-05-03 22:39 | 46.03260 | 17.53633 | 37148 ft | 440 kts | 73° |
| 2026-05-03 22:39 | 46.04696 | 17.62185 | 37147 ft | 439 kts | 72° |
| 2026-05-03 22:40 | 46.06157 | 17.70719 | 37149 ft | 439 kts | 72° |
| 2026-05-03 22:40 | 46.07613 | 17.79265 | 37166 ft | 439 kts | 72° |
| 2026-05-03 22:41 | 46.09046 | 17.87757 | 37172 ft | 439 kts | 72° |
| 2026-05-03 22:41 | 46.10476 | 17.96308 | 37176 ft | 439 kts | 72° |
| 2026-05-03 22:42 | 46.11889 | 18.04856 | 37177 ft | 438 kts | 73° |
| 2026-05-03 22:42 | 46.13300 | 18.13398 | 37177 ft | 438 kts | 73° |
| 2026-05-03 22:43 | 46.14702 | 18.21947 | 37206 ft | 438 kts | 73° |
| 2026-05-03 22:43 | 46.16095 | 18.30480 | 37195 ft | 436 kts | 73° |
| 2026-05-03 22:44 | 46.17478 | 18.38988 | 37186 ft | 435 kts | 73° |
| 2026-05-03 22:44 | 46.18855 | 18.47477 | 37179 ft | 434 kts | 73° |
| 2026-05-03 22:45 | 46.20230 | 18.55955 | 37167 ft | 434 kts | 73° |
| 2026-05-03 22:45 | 46.21599 | 18.64435 | 37168 ft | 434 kts | 73° |
| 2026-05-03 22:46 | 46.22956 | 18.72916 | 37194 ft | 433 kts | 73° |
| 2026-05-03 22:46 | 46.24299 | 18.81387 | 37191 ft | 432 kts | 73° |
| 2026-05-03 22:47 | 46.25639 | 18.89849 | 37185 ft | 432 kts | 73° |
| 2026-05-03 22:47 | 46.26966 | 18.98301 | 37181 ft | 431 kts | 73° |
| 2026-05-03 22:48 | 46.28277 | 19.06701 | 37186 ft | 431 kts | 73° |
| 2026-05-03 22:48 | 46.29598 | 19.15163 | 37209 ft | 431 kts | 73° |
| 2026-05-03 22:49 | 46.30899 | 19.23569 | 37170 ft | 427 kts | 73° |
| 2026-05-03 22:49 | 46.32192 | 19.31947 | 37173 ft | 427 kts | 73° |
| 2026-05-03 22:50 | 46.33480 | 19.40334 | 37179 ft | 427 kts | 73° |
| 2026-05-03 22:50 | 46.34761 | 19.48737 | 37179 ft | 428 kts | 73° |
| 2026-05-03 22:51 | 46.36034 | 19.57143 | 37184 ft | 428 kts | 73° |
| 2026-05-03 22:51 | 46.37304 | 19.65556 | 37207 ft | 428 kts | 74° |
| 2026-05-03 22:52 | 46.38564 | 19.73974 | 37201 ft | 427 kts | 74° |
| 2026-05-03 22:52 | 46.39804 | 19.82390 | 37192 ft | 428 kts | 77° |
| 2026-05-03 22:53 | 46.40454 | 19.91003 | 37189 ft | 430 kts | 80° |
| 2026-05-03 22:53 | 46.40965 | 19.98168 | 37188 ft | 430 kts | 80° |
| 2026-05-03 22:54 | 46.41575 | 20.06789 | 37185 ft | 430 kts | 80° |
| 2026-05-03 22:54 | 46.42176 | 20.15415 | 37184 ft | 430 kts | 81° |
| 2026-05-03 22:55 | 46.42770 | 20.24044 | 37182 ft | 430 kts | 81° |
| 2026-05-03 22:55 | 46.43361 | 20.32675 | 37183 ft | 430 kts | 81° |
| 2026-05-03 22:56 | 46.43948 | 20.41310 | 37184 ft | 430 kts | 81° |
| 2026-05-03 22:56 | 46.44532 | 20.49947 | 37181 ft | 431 kts | 81° |
| 2026-05-03 22:57 | 46.45100 | 20.58590 | 37196 ft | 430 kts | 81° |
| 2026-05-03 22:57 | 46.45655 | 20.67227 | 37190 ft | 430 kts | 81° |
| 2026-05-03 22:58 | 46.46213 | 20.75858 | 37185 ft | 430 kts | 81° |
| 2026-05-03 22:58 | 46.46769 | 20.84485 | 37180 ft | 430 kts | 81° |
| 2026-05-03 22:59 | 46.47323 | 20.93118 | 37178 ft | 430 kts | 81° |
| 2026-05-03 22:59 | 46.47856 | 21.01750 | 37197 ft | 430 kts | 81° |
| 2026-05-03 23:00 | 46.48381 | 21.10382 | 37187 ft | 429 kts | 81° |
| 2026-05-03 23:00 | 46.48904 | 21.19005 | 37180 ft | 429 kts | 82° |
| 2026-05-03 23:01 | 46.49421 | 21.27624 | 37175 ft | 429 kts | 81° |
| 2026-05-03 23:01 | 46.50138 | 21.36195 | 37173 ft | 427 kts | 78° |
| 2026-05-03 23:02 | 46.51003 | 21.44727 | 37201 ft | 427 kts | 78° |
| 2026-05-03 23:02 | 46.51835 | 21.53268 | 37184 ft | 427 kts | 79° |
| 2026-05-03 23:03 | 46.52605 | 21.61755 | 37187 ft | 427 kts | 79° |
| 2026-05-03 23:03 | 46.53368 | 21.70301 | 37184 ft | 427 kts | 79° |
| 2026-05-03 23:04 | 46.54132 | 21.78843 | 37182 ft | 426 kts | 79° |
| 2026-05-03 23:04 | 46.54890 | 21.87386 | 37187 ft | 426 kts | 79° |
| 2026-05-03 23:05 | 46.55639 | 21.95925 | 37206 ft | 426 kts | 79° |
| 2026-05-03 23:05 | 46.56379 | 22.04457 | 37205 ft | 425 kts | 79° |
| 2026-05-03 23:06 | 46.57117 | 22.12976 | 37202 ft | 425 kts | 79° |
| 2026-05-03 23:06 | 46.57843 | 22.21494 | 37203 ft | 424 kts | 79° |
| 2026-05-03 23:07 | 46.58561 | 22.30005 | 37200 ft | 424 kts | 80° |
| 2026-05-03 23:07 | 46.59273 | 22.38522 | 37238 ft | 424 kts | 80° |
| 2026-05-03 23:08 | 46.59980 | 22.47029 | 37232 ft | 423 kts | 80° |
| 2026-05-03 23:08 | 46.60680 | 22.55523 | 37223 ft | 423 kts | 80° |
| 2026-05-03 23:09 | 46.61381 | 22.64006 | 37227 ft | 422 kts | 80° |
| 2026-05-03 23:09 | 46.62069 | 22.72478 | 37227 ft | 422 kts | 80° |
| 2026-05-03 23:10 | 46.62749 | 22.80959 | 37230 ft | 422 kts | 80° |
| 2026-05-03 23:10 | 46.63423 | 22.89439 | 37238 ft | 422 kts | 80° |
| 2026-05-03 23:11 | 46.64090 | 22.97920 | 37233 ft | 422 kts | 80° |
| 2026-05-03 23:11 | 46.64751 | 23.06405 | 37230 ft | 422 kts | 80° |
| 2026-05-03 23:12 | 46.65407 | 23.14886 | 37227 ft | 422 kts | 80° |
| 2026-05-03 23:12 | 46.66054 | 23.23310 | 37227 ft | 422 kts | 80° |
| 2026-05-03 23:13 | 46.66699 | 23.31857 | 37240 ft | 422 kts | 81° |
| 2026-05-03 23:13 | 46.67329 | 23.40285 | 37233 ft | 421 kts | 81° |
| 2026-05-03 23:14 | 46.67952 | 23.48746 | 37203 ft | 420 kts | 81° |
| 2026-05-03 23:14 | 46.68573 | 23.57195 | 37194 ft | 419 kts | 81° |
| 2026-05-03 23:15 | 46.69183 | 23.65636 | 37185 ft | 419 kts | 81° |
| 2026-05-03 23:15 | 46.69788 | 23.74074 | 37185 ft | 419 kts | 81° |
| 2026-05-03 23:16 | 46.70392 | 23.82506 | 37210 ft | 418 kts | 81° |
| 2026-05-03 23:16 | 46.70989 | 23.90929 | 37204 ft | 417 kts | 81° |
| 2026-05-03 23:17 | 46.71573 | 23.99331 | 37201 ft | 416 kts | 81° |
| 2026-05-03 23:17 | 46.72146 | 24.07724 | 37198 ft | 416 kts | 81° |
| 2026-05-03 23:18 | 46.72708 | 24.16120 | 37199 ft | 416 kts | 81° |
| 2026-05-03 23:18 | 46.73279 | 24.24502 | 37200 ft | 415 kts | 81° |
| 2026-05-03 23:19 | 46.73843 | 24.32881 | 37211 ft | 415 kts | 81° |
| 2026-05-03 23:19 | 46.74397 | 24.41263 | 37201 ft | 415 kts | 82° |
| 2026-05-03 23:20 | 46.74942 | 24.49651 | 37206 ft | 416 kts | 82° |
| 2026-05-03 23:20 | 46.75478 | 24.58043 | 37203 ft | 416 kts | 82° |
| 2026-05-03 23:21 | 46.76018 | 24.66434 | 37204 ft | 416 kts | 82° |
| 2026-05-03 23:21 | 46.76550 | 24.74827 | 37208 ft | 416 kts | 82° |
| 2026-05-03 23:22 | 46.77326 | 24.87363 | 37207 ft | 416 kts | 82° |
| 2026-05-03 23:22 | 46.77838 | 24.95764 | 37212 ft | 416 kts | 82° |
| 2026-05-03 23:23 | 46.78339 | 25.04171 | 37213 ft | 416 kts | 82° |
| 2026-05-03 23:23 | 46.78838 | 25.12576 | 37211 ft | 416 kts | 82° |
| 2026-05-03 23:24 | 46.79342 | 25.20983 | 37224 ft | 416 kts | 82° |
| 2026-05-03 23:24 | 46.79836 | 25.29400 | 37226 ft | 416 kts | 82° |
| 2026-05-03 23:25 | 46.80314 | 25.37821 | 37213 ft | 417 kts | 82° |
| 2026-05-03 23:25 | 46.80792 | 25.46247 | 37208 ft | 417 kts | 82° |
| 2026-05-03 23:26 | 46.81260 | 25.54677 | 37212 ft | 417 kts | 82° |
| 2026-05-03 23:26 | 46.81723 | 25.63114 | 37203 ft | 417 kts | 83° |
| 2026-05-03 23:27 | 46.82182 | 25.71552 | 37215 ft | 417 kts | 83° |
| 2026-05-03 23:27 | 46.82641 | 25.79992 | 37218 ft | 417 kts | 83° |
| 2026-05-03 23:28 | 46.83087 | 25.88436 | 37216 ft | 417 kts | 83° |
| 2026-05-03 23:28 | 46.83530 | 25.96884 | 37210 ft | 417 kts | 83° |
| 2026-05-03 23:29 | 46.83963 | 26.05332 | 37204 ft | 417 kts | 83° |
| 2026-05-03 23:29 | 46.84391 | 26.13791 | 37208 ft | 418 kts | 83° |
| 2026-05-03 23:30 | 46.84813 | 26.22192 | 37212 ft | 418 kts | 84° |
| 2026-05-03 23:30 | 46.85232 | 26.30661 | 37205 ft | 418 kts | 84° |
| 2026-05-03 23:31 | 46.85641 | 26.39133 | 37182 ft | 418 kts | 84° |
| 2026-05-03 23:31 | 46.86045 | 26.47617 | 37179 ft | 419 kts | 84° |
| 2026-05-03 23:32 | 46.86444 | 26.56103 | 37167 ft | 419 kts | 84° |
| 2026-05-03 23:32 | 46.86835 | 26.64589 | 37173 ft | 419 kts | 84° |
| 2026-05-03 23:33 | 46.87224 | 26.73088 | 37168 ft | 419 kts | 85° |
| 2026-05-03 23:33 | 46.87603 | 26.81597 | 37155 ft | 420 kts | 85° |
| 2026-05-03 23:34 | 46.87974 | 26.90111 | 37158 ft | 420 kts | 85° |
| 2026-05-03 23:34 | 46.88158 | 26.94375 | 37034 ft | 421 kts | 85° |
| 2026-05-03 23:34 | 46.88342 | 26.98663 | 36371 ft | 424 kts | 85° |
| 2026-05-03 23:35 | 46.88525 | 27.02968 | 35720 ft | 425 kts | 84° |
| 2026-05-03 23:35 | 46.88709 | 27.07288 | 35037 ft | 426 kts | 84° |
| 2026-05-03 23:35 | 46.88891 | 27.11608 | 34524 ft | 423 kts | 84° |
| 2026-05-03 23:35 | 46.89068 | 27.15876 | 34058 ft | 419 kts | 85° |
| 2026-05-03 23:36 | 46.89243 | 27.20114 | 33551 ft | 415 kts | 84° |
| 2026-05-03 23:36 | 46.89414 | 27.24300 | 33089 ft | 410 kts | 84° |
| 2026-05-03 23:36 | 46.89581 | 27.28435 | 32620 ft | 405 kts | 84° |
| 2026-05-03 23:36 | 46.89741 | 27.32515 | 32155 ft | 400 kts | 84° |
| 2026-05-03 23:37 | 46.89898 | 27.36546 | 31700 ft | 395 kts | 84° |
| 2026-05-03 23:37 | 46.90053 | 27.40528 | 31251 ft | 390 kts | 84° |
| 2026-05-03 23:37 | 46.90204 | 27.44408 | 30811 ft | 385 kts | 84° |
| 2026-05-03 23:37 | 46.90356 | 27.48287 | 30376 ft | 380 kts | 84° |
| 2026-05-03 23:38 | 46.90507 | 27.52118 | 29910 ft | 375 kts | 84° |
| 2026-05-03 23:38 | 46.90651 | 27.55887 | 29483 ft | 368 kts | 83° |
| 2026-05-03 23:38 | 46.90789 | 27.59590 | 29095 ft | 362 kts | 84° |
| 2026-05-03 23:38 | 46.90923 | 27.63234 | 28670 ft | 357 kts | 84° |
| 2026-05-03 23:39 | 46.91055 | 27.66829 | 28286 ft | 352 kts | 84° |
| 2026-05-03 23:39 | 46.91185 | 27.70383 | 27912 ft | 347 kts | 84° |
| 2026-05-03 23:39 | 46.91310 | 27.73888 | 27541 ft | 343 kts | 84° |
| 2026-05-03 23:39 | 46.91433 | 27.77359 | 27183 ft | 340 kts | 84° |
| 2026-05-03 23:40 | 46.91554 | 27.80786 | 26833 ft | 335 kts | 84° |
| 2026-05-03 23:40 | 46.91677 | 27.84168 | 26488 ft | 331 kts | 84° |
| 2026-05-03 23:40 | 46.91797 | 27.87506 | 26145 ft | 327 kts | 84° |
| 2026-05-03 23:40 | 46.91913 | 27.90803 | 25798 ft | 322 kts | 84° |
| 2026-05-03 23:41 | 46.92025 | 27.94055 | 25458 ft | 318 kts | 84° |
| 2026-05-03 23:41 | 46.92134 | 27.97262 | 25121 ft | 313 kts | 84° |
| 2026-05-03 23:41 | 46.92239 | 28.00421 | 24781 ft | 309 kts | 83° |
| 2026-05-03 23:41 | 46.92309 | 28.02534 | 24555 ft | 307 kts | 83° |
| 2026-05-03 23:42 | 46.92413 | 28.05631 | 24219 ft | 303 kts | 83° |
| 2026-05-03 23:42 | 46.92570 | 28.08693 | 23840 ft | 300 kts | 78° |
| 2026-05-03 23:42 | 46.93062 | 28.11625 | 23423 ft | 295 kts | 69° |
| 2026-05-03 23:42 | 46.93892 | 28.14339 | 23030 ft | 290 kts | 62° |
| 2026-05-03 23:43 | 46.94815 | 28.16954 | 22655 ft | 288 kts | 62° |
| 2026-05-03 23:43 | 46.95727 | 28.19556 | 22279 ft | 287 kts | 62° |
| 2026-05-03 23:43 | 46.96631 | 28.22149 | 21899 ft | 285 kts | 62° |
| 2026-05-03 23:43 | 46.97529 | 28.24729 | 21516 ft | 284 kts | 62° |
| 2026-05-03 23:44 | 46.98422 | 28.27299 | 21137 ft | 283 kts | 62° |
| 2026-05-03 23:44 | 46.99312 | 28.29861 | 20742 ft | 282 kts | 62° |
| 2026-05-03 23:44 | 47.00187 | 28.32379 | 20371 ft | 281 kts | 62° |
| 2026-05-03 23:44 | 47.01080 | 28.34954 | 19983 ft | 279 kts | 62° |
| 2026-05-03 23:45 | 47.01946 | 28.37452 | 19592 ft | 278 kts | 62° |
| 2026-05-03 23:45 | 47.02817 | 28.39978 | 19220 ft | 277 kts | 62° |
| 2026-05-03 23:45 | 47.03685 | 28.42494 | 18836 ft | 276 kts | 62° |
| 2026-05-03 23:45 | 47.04551 | 28.44999 | 18453 ft | 275 kts | 62° |
| 2026-05-03 23:46 | 47.05416 | 28.47500 | 18031 ft | 275 kts | 62° |
| 2026-05-03 23:46 | 47.06275 | 28.49988 | 17638 ft | 272 kts | 62° |
| 2026-05-03 23:46 | 47.07126 | 28.52457 | 17256 ft | 270 kts | 62° |
| 2026-05-03 23:46 | 47.07970 | 28.54913 | 16874 ft | 269 kts | 62° |
| 2026-05-03 23:47 | 47.08810 | 28.57360 | 16496 ft | 268 kts | 62° |
| 2026-05-03 23:47 | 47.09646 | 28.59796 | 16110 ft | 266 kts | 62° |
| 2026-05-03 23:47 | 47.10480 | 28.62216 | 15746 ft | 266 kts | 62° |
| 2026-05-03 23:47 | 47.11310 | 28.64630 | 15387 ft | 264 kts | 62° |
| 2026-05-03 23:48 | 47.12134 | 28.67037 | 15017 ft | 263 kts | 62° |
| 2026-05-03 23:48 | 47.12954 | 28.69435 | 14653 ft | 262 kts | 62° |
| 2026-05-03 23:48 | 47.13769 | 28.71822 | 14286 ft | 261 kts | 62° |
| 2026-05-03 23:48 | 47.14582 | 28.74203 | 13932 ft | 260 kts | 63° |
| 2026-05-03 23:49 | 47.15392 | 28.76576 | 13531 ft | 259 kts | 62° |
| 2026-05-03 23:49 | 47.16197 | 28.78933 | 13173 ft | 257 kts | 62° |
| 2026-05-03 23:49 | 47.16993 | 28.81272 | 12834 ft | 255 kts | 62° |
| 2026-05-03 23:49 | 47.17785 | 28.83598 | 12469 ft | 254 kts | 62° |
| 2026-05-03 23:50 | 47.18572 | 28.85910 | 12117 ft | 252 kts | 62° |
| 2026-05-03 23:50 | 47.19166 | 28.88323 | 11797 ft | 253 kts | 77° |
| 2026-05-03 23:50 | 47.19142 | 28.90918 | 11497 ft | 259 kts | 97° |
| 2026-05-03 23:50 | 47.18434 | 28.93387 | 11180 ft | 269 kts | 118° |
| 2026-05-03 23:51 | 47.17072 | 28.95336 | 10870 ft | 281 kts | 142° |
| 2026-05-03 23:51 | 47.15207 | 28.96351 | 10552 ft | 294 kts | 166° |
| 2026-05-03 23:51 | 47.13175 | 28.96757 | 10237 ft | 290 kts | 158° |
| 2026-05-03 23:51 | 47.11516 | 28.98203 | 10060 ft | 276 kts | 124° |
| 2026-05-03 23:52 | 47.10741 | 29.00651 | 9910 ft | 262 kts | 90° |
| 2026-05-03 23:52 | 47.10747 | 29.03328 | 9383 ft | 268 kts | 86° |
| 2026-05-03 23:52 | 47.10229 | 29.05982 | 8921 ft | 278 kts | 116° |
| 2026-05-03 23:52 | 47.08942 | 29.08131 | 8382 ft | 286 kts | 136° |
| 2026-05-03 23:53 | 47.07328 | 29.09847 | 7752 ft | 287 kts | 139° |
| 2026-05-03 23:53 | 47.05690 | 29.11524 | 7162 ft | 287 kts | 140° |
| 2026-05-03 23:53 | 47.04053 | 29.13180 | 6574 ft | 286 kts | 140° |
| 2026-05-03 23:53 | 47.02411 | 29.14835 | 5872 ft | 288 kts | 140° |
| 2026-05-03 23:54 | 47.00776 | 29.16488 | 5100 ft | 292 kts | 141° |
| 2026-05-03 23:54 | 46.99118 | 29.18166 | 4646 ft | 284 kts | 141° |
| 2026-05-03 23:54 | 46.97537 | 29.19750 | 4414 ft | 268 kts | 144° |
| 2026-05-03 23:54 | 46.95825 | 29.20567 | 4264 ft | 256 kts | 180° |
| 2026-05-03 23:55 | 46.94219 | 29.19783 | 4159 ft | 241 kts | 218° |
| 2026-05-03 23:55 | 46.93291 | 29.17829 | 3626 ft | 236 kts | 258° |
| 2026-05-03 23:55 | 46.93150 | 29.15452 | 3086 ft | 233 kts | 272° |
| 2026-05-03 23:55 | 46.93145 | 29.13116 | 2718 ft | 225 kts | 271° |
| 2026-05-03 23:56 | 46.93117 | 29.10886 | 2426 ft | 210 kts | 271° |
| 2026-05-03 23:56 | 46.93080 | 29.08879 | 2166 ft | 184 kts | 271° |
| 2026-05-03 23:56 | 46.93046 | 29.07119 | 1910 ft | 163 kts | 271° |
| 2026-05-03 23:56 | 46.93017 | 29.05528 | 1670 ft | 152 kts | 271° |
| 2026-05-03 23:57 | 46.92989 | 29.04014 | 1463 ft | 147 kts | 270° |
| 2026-05-03 23:57 | 46.92961 | 29.02532 | 1269 ft | 145 kts | 270° |
| 2026-05-03 23:57 | 46.92934 | 29.01068 | 1076 ft | 143 kts | 270° |
| 2026-05-03 23:57 | 46.92906 | 28.99624 | 879 ft | 141 kts | 270° |
| 2026-05-03 23:58 | 46.92881 | 28.98196 | 730 ft | 139 kts | 270° |
| 2026-05-03 23:58 | 46.92858 | 28.96772 | 616 ft | 140 kts | 269° |
| 2026-05-03 23:58 | 46.92827 | 28.95348 | 450 ft | 140 kts | 269° |
| 2026-05-03 23:58 | 46.92798 | 28.94018 | 411 ft | 117 kts | 267° |
| 2026-05-03 23:59 | 46.92781 | 28.93084 | 409 ft | 67 kts | 268° |
| 2026-05-03 23:59 | 46.92769 | 28.92558 | 410 ft | 47 kts | 269° |
| 2026-05-03 23:59 | 46.92761 | 28.92142 | 409 ft | 21 kts | 268° |
| 2026-05-03 23:59 | 46.92803 | 28.92004 | 409 ft | 16 kts | 343° |
| 2026-05-04 00:00 | 46.92926 | 28.91993 | 408 ft | 19 kts | 358° |
| 2026-05-04 00:00 | 46.93063 | 28.91988 | 408 ft | 21 kts | 358° |
| 2026-05-04 00:00 | 46.93211 | 28.92025 | 408 ft | 23 kts | 12° |
| 2026-05-04 00:00 | 46.93262 | 28.92113 | 407 ft | 13 kts | 95° |
| 2026-05-04 00:01 | 46.93250 | 28.92258 | 407 ft | 16 kts | 96° |
| 2026-05-04 00:01 | 46.93236 | 28.92434 | 406 ft | 19 kts | 96° |
| 2026-05-04 00:01 | 46.93220 | 28.92638 | 407 ft | 21 kts | 96° |
| 2026-05-04 00:01 | 46.93276 | 28.92731 | 408 ft | 14 kts | 13° |
| 2026-05-04 00:02 | 46.93379 | 28.92750 | 405 ft | 16 kts | 7° |
| 2026-05-04 00:02 | 46.93454 | 28.92764 | 408 ft | 11 kts | 7° |
| 2026-05-04 00:02 | 46.93508 | 28.92822 | 407 ft | 9 kts | 55° |
| 2026-05-04 00:02 | 46.93520 | 28.92845 | 408 ft | 2 kts | 52° |
| 2026-05-04 00:03 | 46.93525 | 28.92854 | 408 ft | 0 kts | 53° |
| 2026-05-04 00:03 | 46.93527 | 28.92858 | 408 ft | 0 kts | 53° |